sensor_id;sensor_type;location;lat;lon;timestamp;P1;durP1;ratioP1;P2;durP2;ratioP2
74963;SDS011;63521;51.900;4.748;2024-01-07T00:02:23;6.88;;;3.65;;
74963;SDS011;63521;51.900;4.748;2024-01-07T00:04:49;8.40;;;4.15;;
74963;SDS011;63521;51.900;4.748;2024-01-07T00:07:14;6.63;;;3.72;;
74963;SDS011;63521;51.900;4.748;2024-01-07T00:09:40;5.57;;;3.30;;
74963;SDS011;63521;51.900;4.748;2024-01-07T00:12:05;6.78;;;3.72;;
74963;SDS011;63521;51.900;4.748;2024-01-07T00:14:31;8.05;;;4.18;;
74963;SDS011;63521;51.900;4.748;2024-01-07T00:16:57;7.15;;;3.45;;
74963;SDS011;63521;51.900;4.748;2024-01-07T00:19:22;7.05;;;3.70;;
74963;SDS011;63521;51.900;4.748;2024-01-07T00:21:48;6.18;;;3.83;;
74963;SDS011;63521;51.900;4.748;2024-01-07T00:24:13;7.50;;;4.05;;
74963;SDS011;63521;51.900;4.748;2024-01-07T00:26:38;6.63;;;3.80;;
74963;SDS011;63521;51.900;4.748;2024-01-07T00:29:05;7.10;;;3.72;;
74963;SDS011;63521;51.900;4.748;2024-01-07T00:31:30;7.03;;;3.63;;
74963;SDS011;63521;51.900;4.748;2024-01-07T00:33:56;7.32;;;4.07;;
74963;SDS011;63521;51.900;4.748;2024-01-07T00:36:21;6.75;;;3.78;;
74963;SDS011;63521;51.900;4.748;2024-01-07T00:38:47;7.68;;;3.80;;
74963;SDS011;63521;51.900;4.748;2024-01-07T00:41:12;7.07;;;3.95;;
74963;SDS011;63521;51.900;4.748;2024-01-07T00:43:38;6.55;;;3.60;;
74963;SDS011;63521;51.900;4.748;2024-01-07T00:46:03;6.25;;;3.85;;
74963;SDS011;63521;51.900;4.748;2024-01-07T00:48:29;7.20;;;3.70;;
74963;SDS011;63521;51.900;4.748;2024-01-07T00:50:54;8.63;;;4.07;;
74963;SDS011;63521;51.900;4.748;2024-01-07T00:53:20;5.95;;;3.65;;
74963;SDS011;63521;51.900;4.748;2024-01-07T00:55:45;7.22;;;4.03;;
74963;SDS011;63521;51.900;4.748;2024-01-07T00:58:11;6.93;;;3.70;;
74963;SDS011;63521;51.900;4.748;2024-01-07T01:00:36;7.60;;;3.90;;
74963;SDS011;63521;51.900;4.748;2024-01-07T01:03:01;7.15;;;3.95;;
74963;SDS011;63521;51.900;4.748;2024-01-07T01:05:27;8.13;;;4.10;;
74963;SDS011;63521;51.900;4.748;2024-01-07T01:07:52;8.57;;;4.20;;
74963;SDS011;63521;51.900;4.748;2024-01-07T01:10:18;6.63;;;3.40;;
74963;SDS011;63521;51.900;4.748;2024-01-07T01:12:44;7.00;;;4.10;;
74963;SDS011;63521;51.900;4.748;2024-01-07T01:15:09;8.20;;;4.22;;
74963;SDS011;63521;51.900;4.748;2024-01-07T01:17:35;7.75;;;3.92;;
74963;SDS011;63521;51.900;4.748;2024-01-07T01:20:00;7.35;;;3.97;;
74963;SDS011;63521;51.900;4.748;2024-01-07T01:22:26;8.18;;;4.00;;
74963;SDS011;63521;51.900;4.748;2024-01-07T01:24:51;8.20;;;4.15;;
74963;SDS011;63521;51.900;4.748;2024-01-07T01:27:18;7.75;;;3.92;;
74963;SDS011;63521;51.900;4.748;2024-01-07T01:29:44;7.13;;;3.78;;
74963;SDS011;63521;51.900;4.748;2024-01-07T01:32:09;7.13;;;3.65;;
74963;SDS011;63521;51.900;4.748;2024-01-07T01:34:35;8.57;;;4.20;;
74963;SDS011;63521;51.900;4.748;2024-01-07T01:37:01;7.78;;;4.32;;
74963;SDS011;63521;51.900;4.748;2024-01-07T01:39:26;8.45;;;4.03;;
74963;SDS011;63521;51.900;4.748;2024-01-07T01:41:53;7.05;;;4.00;;
74963;SDS011;63521;51.900;4.748;2024-01-07T01:44:18;8.95;;;4.50;;
74963;SDS011;63521;51.900;4.748;2024-01-07T01:46:44;7.00;;;3.90;;
74963;SDS011;63521;51.900;4.748;2024-01-07T01:49:10;6.70;;;4.03;;
74963;SDS011;63521;51.900;4.748;2024-01-07T01:51:36;7.38;;;3.85;;
74963;SDS011;63521;51.900;4.748;2024-01-07T01:54:01;8.40;;;4.38;;
74963;SDS011;63521;51.900;4.748;2024-01-07T01:56:28;8.10;;;4.18;;
74963;SDS011;63521;51.900;4.748;2024-01-07T01:58:53;8.05;;;4.10;;
74963;SDS011;63521;51.900;4.748;2024-01-07T02:01:19;6.80;;;3.50;;
74963;SDS011;63521;51.900;4.748;2024-01-07T02:03:44;8.50;;;4.65;;
74963;SDS011;63521;51.900;4.748;2024-01-07T02:06:10;7.72;;;4.00;;
74963;SDS011;63521;51.900;4.748;2024-01-07T02:08:37;9.00;;;4.25;;
74963;SDS011;63521;51.900;4.748;2024-01-07T02:11:19;7.68;;;4.90;;
74963;SDS011;63521;51.900;4.748;2024-01-07T02:13:45;7.68;;;4.10;;
74963;SDS011;63521;51.900;4.748;2024-01-07T02:16:11;7.28;;;4.00;;
74963;SDS011;63521;51.900;4.748;2024-01-07T02:18:40;8.23;;;4.50;;
74963;SDS011;63521;51.900;4.748;2024-01-07T02:21:08;7.25;;;3.58;;
74963;SDS011;63521;51.900;4.748;2024-01-07T02:23:34;7.82;;;4.50;;
74963;SDS011;63521;51.900;4.748;2024-01-07T02:25:59;8.45;;;4.30;;
74963;SDS011;63521;51.900;4.748;2024-01-07T02:28:25;7.85;;;4.32;;
74963;SDS011;63521;51.900;4.748;2024-01-07T02:30:50;7.20;;;4.00;;
74963;SDS011;63521;51.900;4.748;2024-01-07T02:33:16;8.82;;;4.50;;
74963;SDS011;63521;51.900;4.748;2024-01-07T02:35:41;7.60;;;4.13;;
74963;SDS011;63521;51.900;4.748;2024-01-07T02:38:06;7.97;;;4.35;;
74963;SDS011;63521;51.900;4.748;2024-01-07T02:40:33;7.10;;;4.07;;
74963;SDS011;63521;51.900;4.748;2024-01-07T02:42:58;8.10;;;3.90;;
74963;SDS011;63521;51.900;4.748;2024-01-07T02:45:24;8.68;;;4.90;;
74963;SDS011;63521;51.900;4.748;2024-01-07T02:47:49;7.93;;;4.15;;
74963;SDS011;63521;51.900;4.748;2024-01-07T02:50:15;8.05;;;4.07;;
74963;SDS011;63521;51.900;4.748;2024-01-07T02:52:41;8.15;;;4.30;;
74963;SDS011;63521;51.900;4.748;2024-01-07T02:55:07;9.52;;;4.28;;
74963;SDS011;63521;51.900;4.748;2024-01-07T02:57:33;8.02;;;4.35;;
74963;SDS011;63521;51.900;4.748;2024-01-07T02:59:58;8.07;;;4.28;;
74963;SDS011;63521;51.900;4.748;2024-01-07T03:02:24;7.95;;;3.90;;
74963;SDS011;63521;51.900;4.748;2024-01-07T03:04:51;8.27;;;4.35;;
74963;SDS011;63521;51.900;4.748;2024-01-07T03:07:16;7.72;;;4.38;;
74963;SDS011;63521;51.900;4.748;2024-01-07T03:09:41;8.25;;;4.28;;
74963;SDS011;63521;51.900;4.748;2024-01-07T03:12:07;8.18;;;3.95;;
74963;SDS011;63521;51.900;4.748;2024-01-07T03:14:32;9.40;;;4.65;;
74963;SDS011;63521;51.900;4.748;2024-01-07T03:16:57;9.30;;;4.38;;
74963;SDS011;63521;51.900;4.748;2024-01-07T03:19:23;9.43;;;4.72;;
74963;SDS011;63521;51.900;4.748;2024-01-07T03:21:48;8.43;;;4.68;;
74963;SDS011;63521;51.900;4.748;2024-01-07T03:24:14;7.38;;;4.07;;
74963;SDS011;63521;51.900;4.748;2024-01-07T03:26:39;9.85;;;4.35;;
74963;SDS011;63521;51.900;4.748;2024-01-07T03:29:05;10.05;;;4.55;;
74963;SDS011;63521;51.900;4.748;2024-01-07T03:31:30;7.85;;;4.00;;
74963;SDS011;63521;51.900;4.748;2024-01-07T03:33:55;8.13;;;4.20;;
74963;SDS011;63521;51.900;4.748;2024-01-07T03:36:21;6.80;;;4.25;;
74963;SDS011;63521;51.900;4.748;2024-01-07T03:38:47;7.97;;;4.05;;
74963;SDS011;63521;51.900;4.748;2024-01-07T03:41:16;9.15;;;4.25;;
74963;SDS011;63521;51.900;4.748;2024-01-07T03:43:43;9.00;;;4.28;;
74963;SDS011;63521;51.900;4.748;2024-01-07T03:46:08;7.90;;;3.85;;
74963;SDS011;63521;51.900;4.748;2024-01-07T03:48:34;9.68;;;4.10;;
74963;SDS011;63521;51.900;4.748;2024-01-07T03:50:59;10.80;;;4.90;;
74963;SDS011;63521;51.900;4.748;2024-01-07T03:53:24;8.05;;;4.15;;
74963;SDS011;63521;51.900;4.748;2024-01-07T03:55:50;9.35;;;4.72;;
74963;SDS011;63521;51.900;4.748;2024-01-07T03:58:15;9.43;;;4.97;;
74963;SDS011;63521;51.900;4.748;2024-01-07T04:00:41;9.15;;;4.22;;
74963;SDS011;63521;51.900;4.748;2024-01-07T04:03:06;9.38;;;4.57;;
74963;SDS011;63521;51.900;4.748;2024-01-07T04:05:31;10.02;;;4.45;;
74963;SDS011;63521;51.900;4.748;2024-01-07T04:07:59;10.68;;;5.10;;
74963;SDS011;63521;51.900;4.748;2024-01-07T04:10:26;10.60;;;4.80;;
74963;SDS011;63521;51.900;4.748;2024-01-07T04:12:51;10.73;;;4.60;;
74963;SDS011;63521;51.900;4.748;2024-01-07T04:15:17;10.30;;;5.22;;
74963;SDS011;63521;51.900;4.748;2024-01-07T04:17:42;10.18;;;4.60;;
74963;SDS011;63521;51.900;4.748;2024-01-07T04:20:07;8.77;;;4.47;;
74963;SDS011;63521;51.900;4.748;2024-01-07T04:22:33;10.73;;;4.72;;
74963;SDS011;63521;51.900;4.748;2024-01-07T04:24:58;12.00;;;5.68;;
74963;SDS011;63521;51.900;4.748;2024-01-07T04:27:24;10.88;;;5.20;;
74963;SDS011;63521;51.900;4.748;2024-01-07T04:29:52;12.52;;;5.28;;
74963;SDS011;63521;51.900;4.748;2024-01-07T04:32:17;9.63;;;4.88;;
74963;SDS011;63521;51.900;4.748;2024-01-07T04:34:43;9.10;;;4.68;;
74963;SDS011;63521;51.900;4.748;2024-01-07T04:37:08;10.82;;;4.68;;
74963;SDS011;63521;51.900;4.748;2024-01-07T04:39:34;10.20;;;4.97;;
74963;SDS011;63521;51.900;4.748;2024-01-07T04:41:59;10.63;;;5.18;;
74963;SDS011;63521;51.900;4.748;2024-01-07T04:44:24;11.88;;;5.03;;
74963;SDS011;63521;51.900;4.748;2024-01-07T04:46:50;11.05;;;5.38;;
74963;SDS011;63521;51.900;4.748;2024-01-07T04:49:15;10.15;;;5.00;;
74963;SDS011;63521;51.900;4.748;2024-01-07T04:51:41;11.95;;;5.30;;
74963;SDS011;63521;51.900;4.748;2024-01-07T04:54:06;11.85;;;5.40;;
74963;SDS011;63521;51.900;4.748;2024-01-07T04:56:32;10.50;;;5.10;;
74963;SDS011;63521;51.900;4.748;2024-01-07T04:58:57;10.48;;;5.43;;
74963;SDS011;63521;51.900;4.748;2024-01-07T05:01:23;10.13;;;4.95;;
74963;SDS011;63521;51.900;4.748;2024-01-07T05:03:48;11.45;;;5.25;;
74963;SDS011;63521;51.900;4.748;2024-01-07T05:06:14;13.52;;;5.78;;
74963;SDS011;63521;51.900;4.748;2024-01-07T05:08:40;11.23;;;5.38;;
74963;SDS011;63521;51.900;4.748;2024-01-07T05:11:06;9.77;;;4.72;;
74963;SDS011;63521;51.900;4.748;2024-01-07T05:13:31;11.18;;;5.18;;
74963;SDS011;63521;51.900;4.748;2024-01-07T05:15:57;12.57;;;5.90;;
74963;SDS011;63521;51.900;4.748;2024-01-07T05:18:23;11.27;;;5.28;;
74963;SDS011;63521;51.900;4.748;2024-01-07T05:20:48;9.90;;;4.60;;
74963;SDS011;63521;51.900;4.748;2024-01-07T05:23:15;11.85;;;6.00;;
74963;SDS011;63521;51.900;4.748;2024-01-07T05:25:44;13.55;;;5.97;;
74963;SDS011;63521;51.900;4.748;2024-01-07T05:28:10;9.95;;;5.13;;
74963;SDS011;63521;51.900;4.748;2024-01-07T05:30:36;11.20;;;5.53;;
74963;SDS011;63521;51.900;4.748;2024-01-07T05:33:03;11.10;;;5.53;;
74963;SDS011;63521;51.900;4.748;2024-01-07T05:35:28;11.35;;;5.30;;
74963;SDS011;63521;51.900;4.748;2024-01-07T05:37:54;12.55;;;5.90;;
74963;SDS011;63521;51.900;4.748;2024-01-07T05:40:19;11.52;;;5.25;;
74963;SDS011;63521;51.900;4.748;2024-01-07T05:42:45;11.63;;;5.43;;
74963;SDS011;63521;51.900;4.748;2024-01-07T05:45:10;12.63;;;5.70;;
74963;SDS011;63521;51.900;4.748;2024-01-07T05:47:35;11.88;;;5.78;;
74963;SDS011;63521;51.900;4.748;2024-01-07T05:50:01;12.25;;;5.93;;
74963;SDS011;63521;51.900;4.748;2024-01-07T05:52:27;10.20;;;5.45;;
74963;SDS011;63521;51.900;4.748;2024-01-07T05:54:53;13.65;;;6.00;;
74963;SDS011;63521;51.900;4.748;2024-01-07T05:57:18;11.85;;;5.60;;
74963;SDS011;63521;51.900;4.748;2024-01-07T05:59:44;11.60;;;5.35;;
74963;SDS011;63521;51.900;4.748;2024-01-07T06:02:09;14.07;;;6.18;;
74963;SDS011;63521;51.900;4.748;2024-01-07T06:04:36;12.68;;;6.10;;
74963;SDS011;63521;51.900;4.748;2024-01-07T06:07:02;13.68;;;6.43;;
74963;SDS011;63521;51.900;4.748;2024-01-07T06:09:28;14.13;;;6.13;;
74963;SDS011;63521;51.900;4.748;2024-01-07T06:11:53;11.05;;;5.30;;
74963;SDS011;63521;51.900;4.748;2024-01-07T06:14:18;11.65;;;5.40;;
74963;SDS011;63521;51.900;4.748;2024-01-07T06:16:44;10.35;;;5.32;;
74963;SDS011;63521;51.900;4.748;2024-01-07T06:19:09;11.65;;;5.95;;
74963;SDS011;63521;51.900;4.748;2024-01-07T06:21:34;13.55;;;5.90;;
74963;SDS011;63521;51.900;4.748;2024-01-07T06:24:00;11.57;;;5.90;;
74963;SDS011;63521;51.900;4.748;2024-01-07T06:26:25;12.93;;;6.35;;
74963;SDS011;63521;51.900;4.748;2024-01-07T06:28:51;12.43;;;5.85;;
74963;SDS011;63521;51.900;4.748;2024-01-07T06:31:16;13.15;;;5.70;;
74963;SDS011;63521;51.900;4.748;2024-01-07T06:33:41;12.00;;;5.63;;
74963;SDS011;63521;51.900;4.748;2024-01-07T06:36:08;12.13;;;5.63;;
74963;SDS011;63521;51.900;4.748;2024-01-07T06:38:33;11.70;;;5.57;;
74963;SDS011;63521;51.900;4.748;2024-01-07T06:44:39;12.23;;;5.90;;
74963;SDS011;63521;51.900;4.748;2024-01-07T06:47:05;10.50;;;5.47;;
74963;SDS011;63521;51.900;4.748;2024-01-07T07:04:32;12.38;;;6.03;;
74963;SDS011;63521;51.900;4.748;2024-01-07T07:08:08;11.98;;;5.63;;
74963;SDS011;63521;51.900;4.748;2024-01-07T07:11:36;10.25;;;5.15;;
74963;SDS011;63521;51.900;4.748;2024-01-07T07:14:02;11.70;;;5.28;;
74963;SDS011;63521;51.900;4.748;2024-01-07T07:16:27;11.68;;;5.53;;
74963;SDS011;63521;51.900;4.748;2024-01-07T07:18:52;12.38;;;5.72;;
74963;SDS011;63521;51.900;4.748;2024-01-07T07:21:18;12.15;;;5.82;;
74963;SDS011;63521;51.900;4.748;2024-01-07T07:23:44;9.82;;;5.38;;
74963;SDS011;63521;51.900;4.748;2024-01-07T07:26:09;12.55;;;5.32;;
74963;SDS011;63521;51.900;4.748;2024-01-07T07:28:35;12.63;;;6.15;;
74963;SDS011;63521;51.900;4.748;2024-01-07T07:31:02;12.00;;;5.65;;
74963;SDS011;63521;51.900;4.748;2024-01-07T07:33:28;10.98;;;5.65;;
74963;SDS011;63521;51.900;4.748;2024-01-07T07:35:54;12.00;;;6.00;;
74963;SDS011;63521;51.900;4.748;2024-01-07T07:38:19;13.18;;;6.38;;
74963;SDS011;63521;51.900;4.748;2024-01-07T07:40:45;11.55;;;5.88;;
74963;SDS011;63521;51.900;4.748;2024-01-07T07:43:17;11.80;;;5.32;;
74963;SDS011;63521;51.900;4.748;2024-01-07T07:45:42;14.10;;;5.88;;
74963;SDS011;63521;51.900;4.748;2024-01-07T07:48:08;12.68;;;6.05;;
74963;SDS011;63521;51.900;4.748;2024-01-07T07:50:33;12.35;;;5.78;;
74963;SDS011;63521;51.900;4.748;2024-01-07T07:52:58;11.93;;;5.95;;
74963;SDS011;63521;51.900;4.748;2024-01-07T07:55:24;13.63;;;6.43;;
74963;SDS011;63521;51.900;4.748;2024-01-07T07:57:49;14.75;;;5.78;;
74963;SDS011;63521;51.900;4.748;2024-01-07T08:00:16;11.80;;;5.65;;
74963;SDS011;63521;51.900;4.748;2024-01-07T08:02:42;11.77;;;5.72;;
74963;SDS011;63521;51.900;4.748;2024-01-07T08:05:07;14.73;;;6.80;;
74963;SDS011;63521;51.900;4.748;2024-01-07T08:07:33;12.75;;;5.82;;
74963;SDS011;63521;51.900;4.748;2024-01-07T08:10:00;12.40;;;5.85;;
74963;SDS011;63521;51.900;4.748;2024-01-07T08:12:25;11.90;;;5.47;;
74963;SDS011;63521;51.900;4.748;2024-01-07T08:14:51;10.50;;;5.22;;
74963;SDS011;63521;51.900;4.748;2024-01-07T08:17:16;14.38;;;6.35;;
74963;SDS011;63521;51.900;4.748;2024-01-07T08:19:42;13.00;;;6.05;;
74963;SDS011;63521;51.900;4.748;2024-01-07T08:22:07;13.05;;;5.57;;
74963;SDS011;63521;51.900;4.748;2024-01-07T08:24:34;14.82;;;5.53;;
74963;SDS011;63521;51.900;4.748;2024-01-07T08:26:59;10.80;;;5.88;;
74963;SDS011;63521;51.900;4.748;2024-01-07T08:29:25;16.77;;;6.03;;
74963;SDS011;63521;51.900;4.748;2024-01-07T08:31:52;10.55;;;5.07;;
74963;SDS011;63521;51.900;4.748;2024-01-07T08:34:17;12.23;;;6.05;;
74963;SDS011;63521;51.900;4.748;2024-01-07T08:36:43;12.85;;;5.82;;
74963;SDS011;63521;51.900;4.748;2024-01-07T08:39:08;9.82;;;5.63;;
74963;SDS011;63521;51.900;4.748;2024-01-07T08:41:34;14.27;;;6.00;;
74963;SDS011;63521;51.900;4.748;2024-01-07T08:43:59;11.50;;;5.78;;
74963;SDS011;63521;51.900;4.748;2024-01-07T08:46:24;10.43;;;5.38;;
74963;SDS011;63521;51.900;4.748;2024-01-07T08:48:50;10.13;;;5.30;;
74963;SDS011;63521;51.900;4.748;2024-01-07T08:51:15;11.48;;;6.25;;
74963;SDS011;63521;51.900;4.748;2024-01-07T08:53:41;11.60;;;5.68;;
74963;SDS011;63521;51.900;4.748;2024-01-07T08:56:06;11.68;;;5.68;;
74963;SDS011;63521;51.900;4.748;2024-01-07T08:58:32;10.57;;;5.40;;
74963;SDS011;63521;51.900;4.748;2024-01-07T09:00:58;10.27;;;5.57;;
74963;SDS011;63521;51.900;4.748;2024-01-07T09:03:23;10.52;;;5.63;;
74963;SDS011;63521;51.900;4.748;2024-01-07T09:05:49;10.10;;;5.40;;
74963;SDS011;63521;51.900;4.748;2024-01-07T09:08:14;10.52;;;5.35;;
74963;SDS011;63521;51.900;4.748;2024-01-07T09:10:40;9.70;;;5.32;;
74963;SDS011;63521;51.900;4.748;2024-01-07T09:13:05;11.90;;;5.55;;
74963;SDS011;63521;51.900;4.748;2024-01-07T09:15:31;10.63;;;5.60;;
74963;SDS011;63521;51.900;4.748;2024-01-07T09:21:25;11.13;;;5.88;;
74963;SDS011;63521;51.900;4.748;2024-01-07T09:23:51;10.57;;;5.10;;
74963;SDS011;63521;51.900;4.748;2024-01-07T09:26:16;10.27;;;5.43;;
74963;SDS011;63521;51.900;4.748;2024-01-07T09:28:41;10.25;;;5.03;;
74963;SDS011;63521;51.900;4.748;2024-01-07T09:31:07;10.77;;;5.60;;
74963;SDS011;63521;51.900;4.748;2024-01-07T09:33:33;12.00;;;6.10;;
74963;SDS011;63521;51.900;4.748;2024-01-07T09:35:58;10.77;;;5.25;;
74963;SDS011;63521;51.900;4.748;2024-01-07T09:38:24;10.85;;;5.15;;
74963;SDS011;63521;51.900;4.748;2024-01-07T09:40:50;12.07;;;5.70;;
74963;SDS011;63521;51.900;4.748;2024-01-07T09:43:16;11.27;;;5.80;;
74963;SDS011;63521;51.900;4.748;2024-01-07T09:45:41;10.95;;;5.93;;
74963;SDS011;63521;51.900;4.748;2024-01-07T09:48:11;11.50;;;5.55;;
74963;SDS011;63521;51.900;4.748;2024-01-07T09:50:37;10.90;;;5.32;;
74963;SDS011;63521;51.900;4.748;2024-01-07T09:53:02;10.80;;;5.80;;
74963;SDS011;63521;51.900;4.748;2024-01-07T09:55:40;11.52;;;5.68;;
74963;SDS011;63521;51.900;4.748;2024-01-07T09:58:29;12.05;;;5.70;;
74963;SDS011;63521;51.900;4.748;2024-01-07T10:00:54;11.95;;;6.05;;
74963;SDS011;63521;51.900;4.748;2024-01-07T10:03:20;8.93;;;5.50;;
74963;SDS011;63521;51.900;4.748;2024-01-07T10:05:45;11.30;;;5.88;;
74963;SDS011;63521;51.900;4.748;2024-01-07T10:08:10;10.63;;;6.28;;
74963;SDS011;63521;51.900;4.748;2024-01-07T10:10:36;11.80;;;5.35;;
74963;SDS011;63521;51.900;4.748;2024-01-07T10:13:02;11.10;;;6.47;;
74963;SDS011;63521;51.900;4.748;2024-01-07T10:15:27;10.70;;;5.43;;
74963;SDS011;63521;51.900;4.748;2024-01-07T10:17:56;10.60;;;5.68;;
74963;SDS011;63521;51.900;4.748;2024-01-07T10:20:28;10.85;;;5.20;;
74963;SDS011;63521;51.900;4.748;2024-01-07T10:22:53;10.48;;;5.40;;
74963;SDS011;63521;51.900;4.748;2024-01-07T10:25:19;12.50;;;6.88;;
74963;SDS011;63521;51.900;4.748;2024-01-07T10:27:44;9.82;;;5.28;;
74963;SDS011;63521;51.900;4.748;2024-01-07T10:30:09;10.85;;;5.75;;
74963;SDS011;63521;51.900;4.748;2024-01-07T10:32:35;10.63;;;5.60;;
74963;SDS011;63521;51.900;4.748;2024-01-07T10:35:02;10.95;;;5.28;;
74963;SDS011;63521;51.900;4.748;2024-01-07T10:37:30;9.30;;;5.43;;
74963;SDS011;63521;51.900;4.748;2024-01-07T10:39:59;11.57;;;5.40;;
74963;SDS011;63521;51.900;4.748;2024-01-07T10:42:32;9.73;;;5.25;;
74963;SDS011;63521;51.900;4.748;2024-01-07T10:48:38;10.80;;;5.30;;
74963;SDS011;63521;51.900;4.748;2024-01-07T10:51:04;11.80;;;5.32;;
74963;SDS011;63521;51.900;4.748;2024-01-07T10:53:33;10.82;;;5.53;;
74963;SDS011;63521;51.900;4.748;2024-01-07T10:56:00;12.52;;;6.10;;
74963;SDS011;63521;51.900;4.748;2024-01-07T10:58:32;10.50;;;5.15;;
74963;SDS011;63521;51.900;4.748;2024-01-07T11:00:58;10.52;;;5.47;;
74963;SDS011;63521;51.900;4.748;2024-01-07T11:08:28;10.30;;;5.45;;
74963;SDS011;63521;51.900;4.748;2024-01-07T11:13:51;9.45;;;4.82;;
74963;SDS011;63521;51.900;4.748;2024-01-07T11:16:40;8.88;;;5.50;;
74963;SDS011;63521;51.900;4.748;2024-01-07T11:19:02;9.85;;;5.75;;
74963;SDS011;63521;51.900;4.748;2024-01-07T11:21:27;10.07;;;5.53;;
74963;SDS011;63521;51.900;4.748;2024-01-07T11:23:52;9.25;;;5.07;;
74963;SDS011;63521;51.900;4.748;2024-01-07T11:26:23;10.57;;;5.35;;
74963;SDS011;63521;51.900;4.748;2024-01-07T11:31:16;8.48;;;4.70;;
74963;SDS011;63521;51.900;4.748;2024-01-07T11:33:46;10.98;;;5.40;;
74963;SDS011;63521;51.900;4.748;2024-01-07T11:36:16;11.77;;;5.30;;
74963;SDS011;63521;51.900;4.748;2024-01-07T11:38:45;10.27;;;5.10;;
74963;SDS011;63521;51.900;4.748;2024-01-07T11:41:14;10.93;;;5.72;;
74963;SDS011;63521;51.900;4.748;2024-01-07T11:44:01;8.80;;;4.85;;
74963;SDS011;63521;51.900;4.748;2024-01-07T11:46:26;9.90;;;4.82;;
74963;SDS011;63521;51.900;4.748;2024-01-07T11:48:55;9.60;;;5.25;;
74963;SDS011;63521;51.900;4.748;2024-01-07T11:51:25;9.98;;;5.05;;
74963;SDS011;63521;51.900;4.748;2024-01-07T11:53:51;9.75;;;4.70;;
74963;SDS011;63521;51.900;4.748;2024-01-07T11:56:17;9.23;;;4.72;;
74963;SDS011;63521;51.900;4.748;2024-01-07T11:58:43;8.00;;;4.30;;
74963;SDS011;63521;51.900;4.748;2024-01-07T12:01:08;9.65;;;5.03;;
74963;SDS011;63521;51.900;4.748;2024-01-07T12:03:34;9.98;;;4.80;;
74963;SDS011;63521;51.900;4.748;2024-01-07T12:06:00;9.95;;;4.50;;
74963;SDS011;63521;51.900;4.748;2024-01-07T12:08:25;10.90;;;5.03;;
74963;SDS011;63521;51.900;4.748;2024-01-07T12:10:51;9.20;;;4.15;;
74963;SDS011;63521;51.900;4.748;2024-01-07T12:13:16;7.93;;;4.30;;
74963;SDS011;63521;51.900;4.748;2024-01-07T12:15:42;8.60;;;4.57;;
74963;SDS011;63521;51.900;4.748;2024-01-07T12:18:08;8.02;;;4.57;;
74963;SDS011;63521;51.900;4.748;2024-01-07T12:20:34;8.57;;;4.35;;
74963;SDS011;63521;51.900;4.748;2024-01-07T12:23:06;7.80;;;4.07;;
74963;SDS011;63521;51.900;4.748;2024-01-07T12:25:35;7.65;;;4.07;;
74963;SDS011;63521;51.900;4.748;2024-01-07T12:28:01;7.45;;;4.05;;
74963;SDS011;63521;51.900;4.748;2024-01-07T12:30:28;7.35;;;3.88;;
74963;SDS011;63521;51.900;4.748;2024-01-07T12:33:07;7.47;;;4.03;;
74963;SDS011;63521;51.900;4.748;2024-01-07T12:35:33;8.88;;;4.00;;
74963;SDS011;63521;51.900;4.748;2024-01-07T12:37:59;7.85;;;3.92;;
74963;SDS011;63521;51.900;4.748;2024-01-07T12:40:24;8.98;;;4.10;;
74963;SDS011;63521;51.900;4.748;2024-01-07T12:42:52;7.30;;;3.88;;
74963;SDS011;63521;51.900;4.748;2024-01-07T12:45:17;7.35;;;4.20;;
74963;SDS011;63521;51.900;4.748;2024-01-07T12:47:42;6.43;;;3.45;;
74963;SDS011;63521;51.900;4.748;2024-01-07T12:50:08;6.55;;;3.80;;
74963;SDS011;63521;51.900;4.748;2024-01-07T12:52:38;7.85;;;3.83;;
74963;SDS011;63521;51.900;4.748;2024-01-07T12:55:04;6.35;;;3.50;;
74963;SDS011;63521;51.900;4.748;2024-01-07T12:57:30;5.65;;;3.67;;
74963;SDS011;63521;51.900;4.748;2024-01-07T12:59:56;6.82;;;3.67;;
74963;SDS011;63521;51.900;4.748;2024-01-07T13:02:22;6.68;;;3.50;;
74963;SDS011;63521;51.900;4.748;2024-01-07T13:04:47;5.47;;;3.35;;
74963;SDS011;63521;51.900;4.748;2024-01-07T13:07:12;6.18;;;3.35;;
74963;SDS011;63521;51.900;4.748;2024-01-07T13:09:38;5.35;;;3.20;;
74963;SDS011;63521;51.900;4.748;2024-01-07T13:12:04;6.25;;;3.08;;
74963;SDS011;63521;51.900;4.748;2024-01-07T13:14:29;7.25;;;3.38;;
74963;SDS011;63521;51.900;4.748;2024-01-07T13:16:55;6.63;;;2.97;;
74963;SDS011;63521;51.900;4.748;2024-01-07T13:19:20;5.63;;;2.92;;
74963;SDS011;63521;51.900;4.748;2024-01-07T13:21:45;4.72;;;2.92;;
74963;SDS011;63521;51.900;4.748;2024-01-07T13:24:11;6.43;;;2.90;;
74963;SDS011;63521;51.900;4.748;2024-01-07T13:26:36;5.07;;;2.78;;
74963;SDS011;63521;51.900;4.748;2024-01-07T13:29:02;5.80;;;3.03;;
74963;SDS011;63521;51.900;4.748;2024-01-07T13:31:28;5.93;;;2.78;;
74963;SDS011;63521;51.900;4.748;2024-01-07T13:33:54;5.00;;;2.90;;
74963;SDS011;63521;51.900;4.748;2024-01-07T13:36:19;4.97;;;2.55;;
74963;SDS011;63521;51.900;4.748;2024-01-07T13:38:45;6.40;;;2.58;;
74963;SDS011;63521;51.900;4.748;2024-01-07T13:41:14;4.53;;;2.42;;
74963;SDS011;63521;51.900;4.748;2024-01-07T13:43:40;4.53;;;2.88;;
74963;SDS011;63521;51.900;4.748;2024-01-07T13:46:06;4.40;;;2.65;;
74963;SDS011;63521;51.900;4.748;2024-01-07T13:48:31;5.50;;;2.42;;
74963;SDS011;63521;51.900;4.748;2024-01-07T13:50:57;4.13;;;2.55;;
74963;SDS011;63521;51.900;4.748;2024-01-07T13:53:23;4.80;;;2.50;;
74963;SDS011;63521;51.900;4.748;2024-01-07T13:55:48;4.85;;;2.40;;
74963;SDS011;63521;51.900;4.748;2024-01-07T13:58:14;4.82;;;2.60;;
74963;SDS011;63521;51.900;4.748;2024-01-07T14:00:40;5.28;;;2.67;;
74963;SDS011;63521;51.900;4.748;2024-01-07T14:03:06;3.60;;;2.35;;
74963;SDS011;63521;51.900;4.748;2024-01-07T14:05:32;4.70;;;2.25;;
74963;SDS011;63521;51.900;4.748;2024-01-07T14:07:57;3.95;;;2.22;;
74963;SDS011;63521;51.900;4.748;2024-01-07T14:10:23;5.57;;;2.35;;
74963;SDS011;63521;51.900;4.748;2024-01-07T14:12:48;4.88;;;2.35;;
74963;SDS011;63521;51.900;4.748;2024-01-07T14:15:13;4.22;;;2.20;;
74963;SDS011;63521;51.900;4.748;2024-01-07T14:17:39;3.53;;;2.20;;
74963;SDS011;63521;51.900;4.748;2024-01-07T14:20:05;3.85;;;2.17;;
74963;SDS011;63521;51.900;4.748;2024-01-07T14:22:32;4.07;;;1.90;;
74963;SDS011;63521;51.900;4.748;2024-01-07T14:24:58;3.80;;;2.05;;
74963;SDS011;63521;51.900;4.748;2024-01-07T14:27:23;3.30;;;1.98;;
74963;SDS011;63521;51.900;4.748;2024-01-07T14:29:48;3.42;;;1.95;;
74963;SDS011;63521;51.900;4.748;2024-01-07T14:32:14;3.83;;;2.03;;
74963;SDS011;63521;51.900;4.748;2024-01-07T14:34:39;4.75;;;2.10;;
74963;SDS011;63521;51.900;4.748;2024-01-07T14:37:11;3.75;;;2.10;;
74963;SDS011;63521;51.900;4.748;2024-01-07T14:39:37;3.15;;;1.90;;
74963;SDS011;63521;51.900;4.748;2024-01-07T14:42:02;4.20;;;1.92;;
74963;SDS011;63521;51.900;4.748;2024-01-07T14:44:28;3.83;;;2.20;;
74963;SDS011;63521;51.900;4.748;2024-01-07T14:46:54;2.90;;;2.10;;
74963;SDS011;63521;51.900;4.748;2024-01-07T14:49:19;2.88;;;1.65;;
74963;SDS011;63521;51.900;4.748;2024-01-07T14:51:45;2.80;;;2.00;;
74963;SDS011;63521;51.900;4.748;2024-01-07T14:54:12;2.50;;;1.75;;
74963;SDS011;63521;51.900;4.748;2024-01-07T14:57:08;2.60;;;1.60;;
74963;SDS011;63521;51.900;4.748;2024-01-07T14:59:34;2.90;;;1.80;;
74963;SDS011;63521;51.900;4.748;2024-01-07T15:02:02;4.18;;;1.85;;
74963;SDS011;63521;51.900;4.748;2024-01-07T15:04:28;2.13;;;1.60;;
74963;SDS011;63521;51.900;4.748;2024-01-07T15:06:54;3.08;;;1.73;;
74963;SDS011;63521;51.900;4.748;2024-01-07T15:09:19;3.15;;;1.90;;
74963;SDS011;63521;51.900;4.748;2024-01-07T15:11:46;2.85;;;1.90;;
74963;SDS011;63521;51.900;4.748;2024-01-07T15:14:13;4.13;;;1.95;;
74963;SDS011;63521;51.900;4.748;2024-01-07T15:19:29;2.70;;;1.70;;